createdAt,value
2019-02-16T00:01:23.382Z,19.17
2019-02-16T00:03:53.753Z,17.70
2019-02-16T00:06:24.122Z,18.63
2019-02-16T00:08:54.790Z,18.90
2019-02-16T00:11:25.146Z,19.77
2019-02-16T00:13:55.481Z,19.63
2019-02-16T00:16:25.949Z,20.07
2019-02-16T00:18:56.352Z,19.50
2019-02-16T00:21:26.781Z,19.33
2019-02-16T00:23:57.437Z,18.87
2019-02-16T00:26:27.773Z,19.73
2019-02-16T00:28:59.199Z,18.77
2019-02-16T00:31:29.533Z,19.33
2019-02-16T00:33:59.893Z,18.10
2019-02-16T00:36:30.225Z,18.97
2019-02-16T00:39:00.583Z,19.57
2019-02-16T00:41:30.985Z,18.57
2019-02-16T00:44:01.340Z,18.20
2019-02-16T00:46:31.681Z,18.00
2019-02-16T00:49:02.151Z,18.17
2019-02-16T00:51:32.478Z,16.27
2019-02-16T00:54:02.850Z,17.13
2019-02-16T00:56:33.181Z,18.50
2019-02-16T00:59:03.533Z,16.80
2019-02-16T01:01:33.897Z,17.97
2019-02-16T01:04:04.357Z,18.70
2019-02-16T01:06:34.685Z,18.53
2019-02-16T01:09:06.797Z,17.90
2019-02-16T01:11:37.305Z,18.70
2019-02-16T01:14:07.762Z,17.83
2019-02-16T01:16:38.093Z,17.17
2019-02-16T01:19:08.765Z,18.70
2019-02-16T01:21:39.102Z,17.83
2019-02-16T01:24:09.500Z,17.30
2019-02-16T01:26:39.821Z,18.17
2019-02-16T01:29:10.494Z,19.27
2019-02-16T01:31:40.829Z,18.80
2019-02-16T01:34:11.186Z,17.90
2019-02-16T01:36:41.509Z,19.20
2019-02-16T01:39:12.965Z,19.27
2019-02-16T01:41:43.289Z,20.07
2019-02-16T01:44:13.645Z,20.20
2019-02-16T01:46:44.008Z,21.47
2019-02-16T01:49:14.342Z,21.33
2019-02-16T01:51:44.698Z,21.30
2019-02-16T01:54:15.901Z,21.13
2019-02-16T01:56:46.265Z,20.90
2019-02-16T01:59:16.593Z,19.33
2019-02-16T02:01:47.026Z,20.87
2019-02-16T02:04:17.357Z,21.07
2019-02-16T02:06:47.722Z,21.23
2019-02-16T02:09:18.386Z,21.43
2019-02-16T02:11:48.713Z,20.77
2019-02-16T02:14:19.080Z,21.83
2019-02-16T02:16:49.461Z,21.83
2019-02-16T02:19:19.874Z,22.43
2019-02-16T02:21:50.201Z,21.30
2019-02-16T02:24:20.645Z,21.57
2019-02-16T02:26:52.053Z,21.37
2019-02-16T02:29:22.429Z,22.17
2019-02-16T02:31:52.770Z,21.70
2019-02-16T02:34:23.117Z,22.93
2019-02-16T02:36:53.445Z,21.33
2019-02-16T02:39:23.803Z,22.67
2019-02-16T02:41:54.161Z,22.83
2019-02-16T02:44:24.516Z,22.73
2019-02-16T02:46:54.869Z,21.87
2019-02-16T02:49:25.215Z,22.47
2019-02-16T02:51:55.542Z,22.27
2019-02-16T02:54:25.895Z,23.20
2019-02-16T02:56:56.265Z,23.10
2019-02-16T02:59:26.602Z,23.57
2019-02-16T03:01:56.970Z,23.67
2019-02-16T03:04:27.305Z,22.83
2019-02-16T03:06:57.673Z,22.93
2019-02-16T03:09:28.025Z,23.83
2019-02-16T03:11:58.388Z,24.40
2019-02-16T03:14:28.754Z,24.17
2019-02-16T03:16:59.092Z,23.60
2019-02-16T03:19:29.616Z,23.07
2019-02-16T03:22:02.757Z,24.47
2019-02-16T03:24:43.842Z,26.37
2019-02-16T03:27:42.050Z,23.83
2019-02-16T03:30:57.672Z,22.33
2019-02-16T03:33:58.589Z,22.80
2019-02-16T03:36:51.226Z,22.20
2019-02-16T03:39:42.862Z,22.90
2019-02-16T03:42:13.225Z,23.40
2019-02-16T03:44:43.569Z,21.73
2019-02-16T03:47:13.942Z,23.83
2019-02-16T03:49:44.284Z,23.60
2019-02-16T03:52:14.651Z,23.50
2019-02-16T03:54:45.015Z,22.80
2019-02-16T03:57:15.381Z,24.13
2019-02-16T03:59:45.732Z,24.50
2019-02-16T04:02:16.125Z,26.03
2019-02-16T04:04:46.497Z,24.67
2019-02-16T04:07:16.879Z,24.30
2019-02-16T04:09:47.225Z,24.07
2019-02-16T04:12:17.592Z,25.13
2019-02-16T04:14:48.082Z,23.73
2019-02-16T04:17:18.412Z,24.23
2019-02-16T04:19:48.824Z,22.70
2019-02-16T04:22:24.714Z,23.80
2019-02-16T04:24:52.597Z,24.37
2019-02-16T04:27:24.012Z,25.33
2019-02-16T04:29:54.383Z,24.47
2019-02-16T04:32:24.713Z,24.97
2019-02-16T04:34:55.091Z,25.13
2019-02-16T04:37:25.425Z,24.63
2019-02-16T04:39:55.801Z,26.20
2019-02-16T04:42:26.375Z,26.67
2019-02-16T04:44:56.729Z,27.17
2019-02-16T04:47:27.086Z,26.20
2019-02-16T04:49:57.418Z,27.57
2019-02-16T04:52:34.320Z,26.37
2019-02-16T04:54:59.830Z,25.93
2019-02-16T04:57:30.417Z,27.23
2019-02-16T05:00:00.753Z,27.67
2019-02-16T05:02:31.136Z,27.43
2019-02-16T05:05:01.477Z,27.87
2019-02-16T05:07:31.860Z,27.67
2019-02-16T05:10:02.206Z,29.53
2019-02-16T05:12:32.570Z,28.60
2019-02-16T05:15:02.926Z,29.20
2019-02-16T05:17:33.386Z,29.63
2019-02-16T05:20:04.677Z,29.40
2019-02-16T05:22:43.855Z,27.33
2019-02-16T05:25:07.010Z,30.87
2019-02-16T05:27:37.341Z,29.67
2019-02-16T05:30:07.784Z,28.47
2019-02-16T05:32:38.117Z,26.87
2019-02-16T05:35:08.513Z,29.20
2019-02-16T05:37:38.846Z,28.50
2019-02-16T05:40:09.420Z,30.27
2019-02-16T05:42:39.762Z,30.03
2019-02-16T05:45:10.244Z,30.07
2019-02-16T05:47:40.569Z,27.13
2019-02-16T05:50:10.941Z,28.40
2019-02-16T05:52:41.274Z,28.53
2019-02-16T05:55:11.646Z,29.90
2019-02-16T05:57:42.002Z,30.03
2019-02-16T06:00:13.548Z,32.27
2019-02-16T06:02:43.886Z,32.37
2019-02-16T06:05:15.335Z,29.67
2019-02-16T06:07:45.673Z,30.07
2019-02-16T06:10:16.137Z,29.63
2019-02-16T06:12:46.469Z,31.90
2019-02-16T06:15:16.857Z,31.43
2019-02-16T06:17:47.197Z,32.63
2019-02-16T06:20:17.565Z,31.33
2019-02-16T06:22:48.149Z,30.73
2019-02-16T06:25:18.604Z,30.57
2019-02-16T06:27:48.924Z,31.70
2019-02-16T06:30:19.378Z,31.80
2019-02-16T06:32:49.719Z,33.00
2019-02-16T06:35:33.877Z,30.80
2019-02-16T06:38:04.217Z,31.10
2019-02-16T06:40:34.584Z,31.07
2019-02-16T06:43:04.919Z,32.00
2019-02-16T06:45:35.293Z,29.40
2019-02-16T06:48:05.630Z,30.33
2019-02-16T06:50:37.193Z,30.37
2019-02-16T06:53:13.277Z,30.73
2019-02-16T06:56:01.524Z,29.23
2019-02-16T06:58:31.934Z,28.37
2019-02-16T07:01:02.325Z,29.57
2019-02-16T07:03:32.662Z,28.50
2019-02-16T07:06:03.141Z,27.73
2019-02-16T07:08:33.481Z,27.57
2019-02-16T07:11:03.929Z,27.03
2019-02-16T07:13:34.277Z,25.53
2019-02-16T07:16:22.478Z,26.73
2019-02-16T07:18:57.929Z,25.97
2019-02-16T07:21:28.317Z,25.53
2019-02-16T07:23:58.658Z,25.90
2019-02-16T07:26:29.117Z,26.00
2019-02-16T07:28:59.462Z,25.80
2019-02-16T07:31:29.830Z,26.03
2019-02-16T07:34:00.169Z,26.17
2019-02-16T07:36:30.560Z,27.00
2019-02-16T07:39:00.941Z,27.20
2019-02-16T07:41:32.397Z,27.20
2019-02-16T07:44:27.486Z,28.63
2019-02-16T07:47:06.975Z,26.73
2019-02-16T07:49:56.575Z,25.67
2019-02-16T07:52:57.961Z,24.17
2019-02-16T07:55:38.844Z,23.73
2019-02-16T07:58:14.221Z,21.80
2019-02-16T08:01:02.119Z,20.97
2019-02-16T08:03:52.657Z,20.37
2019-02-16T08:06:47.973Z,17.33
2019-02-16T08:09:40.414Z,15.57
2019-02-16T08:12:29.708Z,14.60
2019-02-16T08:15:05.317Z,14.73
2019-02-16T08:18:02.454Z,14.70
2019-02-16T08:20:41.945Z,13.70
2019-02-16T08:23:21.738Z,14.17
2019-02-16T08:26:16.964Z,13.03
2019-02-16T08:28:59.257Z,10.47
2019-02-16T08:31:35.545Z,11.03
2019-02-16T08:34:37.218Z,9.50
2019-02-16T08:37:44.907Z,9.60
2019-02-16T08:40:27.493Z,8.53
2019-02-16T08:43:07.287Z,8.47
2019-02-16T08:45:50.161Z,8.00
2019-02-16T08:48:30.436Z,8.50
2019-02-16T08:51:11.905Z,8.00
2019-02-16T08:54:04.066Z,8.00
2019-02-16T08:56:56.401Z,7.37
2019-02-16T08:59:43.739Z,6.90
2019-02-16T09:02:30.517Z,6.00
2019-02-16T09:05:11.137Z,6.70
2019-02-16T09:08:06.397Z,6.20
2019-02-16T09:11:01.913Z,6.00
2019-02-16T09:13:48.209Z,5.57
2019-02-16T09:16:38.383Z,5.60
2019-02-16T09:19:26.049Z,5.83
2019-02-16T09:22:15.363Z,5.40
2019-02-16T09:24:54.537Z,5.27
2019-02-16T09:27:40.584Z,5.10
2019-02-16T09:30:28.469Z,5.00
2019-02-16T09:33:26.903Z,5.07
2019-02-16T09:36:15.463Z,5.23
2019-02-16T09:39:01.125Z,4.60
2019-02-16T09:41:49.436Z,4.53
2019-02-16T09:44:25.313Z,5.00
2019-02-16T09:47:33.638Z,5.00
2019-02-16T09:50:22.297Z,5.07
2019-02-16T09:53:13.265Z,4.67
2019-02-16T09:56:01.449Z,4.50
2019-02-16T09:58:49.785Z,4.70
2019-02-16T10:01:37.646Z,4.30
2019-02-16T10:04:21.893Z,4.30
2019-02-16T10:07:10.547Z,5.00
2019-02-16T10:10:15.214Z,4.60
2019-02-16T10:12:57.389Z,4.37
2019-02-16T10:15:49.066Z,4.33
2019-02-16T10:18:34.493Z,5.10
2019-02-16T10:21:23.814Z,4.60
2019-02-16T10:24:18.010Z,4.70
2019-02-16T10:27:01.549Z,4.40
2019-02-16T10:30:06.189Z,4.63
2019-02-16T10:32:49.109Z,3.93
2019-02-16T10:35:44.628Z,4.23
2019-02-16T10:38:36.679Z,4.37
2019-02-16T10:41:38.256Z,4.30
2019-02-16T10:44:30.293Z,3.80
2019-02-16T10:47:22.529Z,4.50
2019-02-16T10:50:03.137Z,3.97
2019-02-16T10:52:55.605Z,3.73
2019-02-16T10:55:41.365Z,3.73
2019-02-16T10:58:21.966Z,3.90
2019-02-16T11:01:09.864Z,3.97
2019-02-16T11:03:53.769Z,3.50
2019-02-16T11:06:52.129Z,3.30
2019-02-16T11:09:50.309Z,3.40
2019-02-16T11:12:43.753Z,3.37
2019-02-16T11:15:44.465Z,3.20
2019-02-16T11:18:33.742Z,3.80
2019-02-16T11:21:41.339Z,3.50
2019-02-16T11:24:18.117Z,3.00
2019-02-16T11:27:06.405Z,3.23
2019-02-16T11:29:48.708Z,2.83
2019-02-16T11:32:37.365Z,3.50
2019-02-16T11:35:19.790Z,3.47
2019-02-16T11:37:57.669Z,3.40
2019-02-16T11:40:53.001Z,3.50
2019-02-16T11:43:45.169Z,3.00
2019-02-16T11:46:46.785Z,3.30
2019-02-16T11:49:26.636Z,2.97
2019-02-16T11:52:24.937Z,3.27
2019-02-16T11:55:21.549Z,2.90
2019-02-16T11:58:09.494Z,3.40
2019-02-16T12:00:58.897Z,2.93
2019-02-16T12:03:44.257Z,3.00
2019-02-16T12:06:37.417Z,3.00
2019-02-16T12:09:28.234Z,3.20
2019-02-16T12:12:08.975Z,3.13
2019-02-16T12:14:59.451Z,2.97
2019-02-16T12:17:54.705Z,2.93
2019-02-16T12:20:36.849Z,2.90
2019-02-16T12:23:32.188Z,2.73
2019-02-16T12:26:17.345Z,2.70
2019-02-16T12:29:15.810Z,2.60
2019-02-16T12:32:11.759Z,2.53
2019-02-16T12:34:59.997Z,2.50
2019-02-16T12:37:48.449Z,2.30
2019-02-16T12:40:37.749Z,2.77
2019-02-16T12:43:27.021Z,2.57
2019-02-16T12:46:08.705Z,2.10
2019-02-16T12:48:49.553Z,2.33
2019-02-16T12:51:44.929Z,2.17
2019-02-16T12:54:24.393Z,2.47
2019-02-16T12:57:03.149Z,2.30
2019-02-16T13:00:04.525Z,2.40
2019-02-16T13:02:42.713Z,2.83
2019-02-16T13:05:28.169Z,2.30
2019-02-16T13:08:20.704Z,2.70
2019-02-16T13:11:12.857Z,2.50
2019-02-16T13:14:08.181Z,2.67
2019-02-16T13:16:56.234Z,2.20
2019-02-16T13:19:51.533Z,2.30
2019-02-16T13:22:30.237Z,2.60
2019-02-16T13:25:06.737Z,2.90
2019-02-16T13:27:56.009Z,2.27
2019-02-16T13:30:35.966Z,2.53
2019-02-16T13:33:29.289Z,2.40
2019-02-16T13:36:17.539Z,2.63
2019-02-16T13:38:56.262Z,2.50
2019-02-16T13:41:32.965Z,2.67
2019-02-16T13:44:22.263Z,2.40
2019-02-16T13:47:11.557Z,2.17
2019-02-16T13:50:07.401Z,2.20
2019-02-16T13:52:54.130Z,2.60
2019-02-16T13:55:43.205Z,2.30
2019-02-16T13:58:32.502Z,2.70
2019-02-16T14:01:07.469Z,2.43
2019-02-16T14:03:59.556Z,2.70
2019-02-16T14:06:48.837Z,2.27
2019-02-16T14:09:50.308Z,2.30
2019-02-16T14:12:38.484Z,2.43
2019-02-16T14:15:32.485Z,2.10
2019-02-16T14:18:02.905Z,2.40
2019-02-16T14:20:33.261Z,2.00
2019-02-16T14:23:03.593Z,2.30
2019-02-16T14:25:47.724Z,2.43
2019-02-16T14:28:19.037Z,2.03
2019-02-16T14:30:49.417Z,2.40
2019-02-16T14:33:19.749Z,2.50
2019-02-16T14:35:50.130Z,2.30
2019-02-16T14:38:39.393Z,2.40
2019-02-16T14:41:09.846Z,2.27
2019-02-16T14:43:40.170Z,2.10
2019-02-16T14:46:10.520Z,2.30
2019-02-16T14:48:40.882Z,2.10
2019-02-16T14:51:11.229Z,2.30
2019-02-16T14:53:41.592Z,1.90
2019-02-16T14:56:11.933Z,2.20
2019-02-16T14:58:42.297Z,1.97
2019-02-16T15:01:12.629Z,1.90
2019-02-16T15:03:43.017Z,2.07
2019-02-16T15:06:13.341Z,1.93
2019-02-16T15:08:43.721Z,2.03
2019-02-16T15:11:14.041Z,1.87
2019-02-16T15:13:45.094Z,2.03
2019-02-16T15:16:15.642Z,2.10
2019-02-16T15:18:46.039Z,2.47
2019-02-16T15:21:16.377Z,2.40
2019-02-16T15:23:46.737Z,2.30
2019-02-16T15:26:17.107Z,2.40
2019-02-16T15:28:47.433Z,2.23
2019-02-16T15:31:17.828Z,2.53
2019-02-16T15:33:48.138Z,2.00
2019-02-16T15:36:23.864Z,2.30
2019-02-16T15:38:50.445Z,2.50
2019-02-16T15:41:21.178Z,3.10
2019-02-16T15:43:51.527Z,2.63
2019-02-16T15:46:21.897Z,2.50
2019-02-16T15:48:52.225Z,2.20
2019-02-16T15:51:22.626Z,2.47
2019-02-16T15:53:52.970Z,2.70
2019-02-16T15:56:24.400Z,2.60
2019-02-16T15:58:54.854Z,2.20
2019-02-16T16:01:25.230Z,2.40
2019-02-16T16:03:56.005Z,2.53
2019-02-16T16:06:26.378Z,2.50
2019-02-16T16:09:14.281Z,3.27
2019-02-16T16:12:02.312Z,2.67
2019-02-16T16:14:49.633Z,2.50
2019-02-16T16:17:31.321Z,2.40
2019-02-16T16:20:20.621Z,2.37
2019-02-16T16:23:09.170Z,2.30
2019-02-16T16:26:04.776Z,2.47
2019-02-16T16:29:14.041Z,2.93
2019-02-16T16:31:55.709Z,2.10
2019-02-16T16:34:52.387Z,2.90
2019-02-16T16:37:43.661Z,2.53
2019-02-16T16:40:42.213Z,2.47
2019-02-16T16:43:29.358Z,3.03
2019-02-16T16:46:13.201Z,3.10
2019-02-16T16:49:12.549Z,2.87
2019-02-16T16:52:01.843Z,3.40
2019-02-16T16:54:41.790Z,4.10
2019-02-16T16:57:22.685Z,4.47
2019-02-16T17:00:10.626Z,4.40
2019-02-16T17:03:03.188Z,4.23
2019-02-16T17:05:51.433Z,4.27
2019-02-16T17:08:46.665Z,4.47
2019-02-16T17:11:32.328Z,4.60
2019-02-16T17:14:13.405Z,4.17
2019-02-16T17:17:01.689Z,4.40
2019-02-16T17:19:38.826Z,3.93
2019-02-16T17:22:32.063Z,4.20
2019-02-16T17:25:27.582Z,4.40
2019-02-16T17:28:32.185Z,4.10
2019-02-16T17:31:27.485Z,4.30
2019-02-16T17:34:26.092Z,4.17
2019-02-16T17:37:24.204Z,4.23
2019-02-16T17:40:13.477Z,3.73
2019-02-16T17:42:58.025Z,3.70
2019-02-16T17:45:46.317Z,3.77
2019-02-16T17:48:35.601Z,3.30
2019-02-16T17:51:24.876Z,3.70
2019-02-16T17:54:14.161Z,3.60
2019-02-16T17:56:56.369Z,3.30
2019-02-16T17:59:36.753Z,3.50
2019-02-16T18:02:34.928Z,3.60
2019-02-16T18:05:27.067Z,3.63
2019-02-16T18:08:19.437Z,3.60
2019-02-16T18:11:11.733Z,3.30
2019-02-16T18:13:55.664Z,3.50
2019-02-16T18:16:57.141Z,3.70
2019-02-16T18:19:37.527Z,3.00
2019-02-16T18:22:24.049Z,3.33
2019-02-16T18:25:04.457Z,3.50
2019-02-16T18:27:54.481Z,3.70
2019-02-16T18:30:43.072Z,4.70
2019-02-16T18:33:31.033Z,6.17
2019-02-16T18:36:08.113Z,5.50
2019-02-16T18:38:57.882Z,5.07
2019-02-16T18:41:50.281Z,5.30
2019-02-16T18:44:39.580Z,5.27
2019-02-16T18:47:28.373Z,5.43
2019-02-16T18:50:17.795Z,5.50
2019-02-16T18:53:09.817Z,5.40
2019-02-16T18:55:59.139Z,4.97
2019-02-16T18:58:51.185Z,5.23
2019-02-16T19:01:58.726Z,5.27
2019-02-16T19:04:48.042Z,5.40
2019-02-16T19:07:49.313Z,6.10
2019-02-16T19:10:44.729Z,5.30
2019-02-16T19:13:46.090Z,5.60
2019-02-16T19:16:35.353Z,5.93
2019-02-16T19:19:35.697Z,5.70
2019-02-16T19:22:27.811Z,5.47
2019-02-16T19:25:07.085Z,6.13
2019-02-16T19:28:02.549Z,6.17
2019-02-16T19:30:46.809Z,6.37
2019-02-16T19:33:47.969Z,6.53
2019-02-16T19:36:29.509Z,7.47
2019-02-16T19:39:17.700Z,8.20
2019-02-16T19:41:59.884Z,8.40
2019-02-16T19:44:55.207Z,9.80
2019-02-16T19:47:44.342Z,10.27
2019-02-16T19:50:36.354Z,9.10
2019-02-16T19:53:24.720Z,9.73
2019-02-16T19:56:26.953Z,10.57
2019-02-16T19:59:16.383Z,11.07
2019-02-16T20:02:08.149Z,10.83
2019-02-16T20:04:55.073Z,11.30
2019-02-16T20:07:59.780Z,12.90
2019-02-16T20:11:07.289Z,12.43
2019-02-16T20:14:02.543Z,13.37
2019-02-16T20:16:51.812Z,14.03
2019-02-16T20:19:52.973Z,12.77
2019-02-16T20:22:57.977Z,12.37
2019-02-16T20:25:53.661Z,13.27
2019-02-16T20:28:46.253Z,12.87
2019-02-16T20:31:29.537Z,13.37
2019-02-16T20:34:08.421Z,14.40
2019-02-16T20:36:50.163Z,14.43
2019-02-16T20:39:39.785Z,14.30
2019-02-16T20:42:16.409Z,17.30
2019-02-16T20:45:00.321Z,14.97
2019-02-16T20:47:48.864Z,17.37
2019-02-16T20:50:45.787Z,17.93
2019-02-16T20:53:34.033Z,18.50
2019-02-16T20:56:18.684Z,18.00
2019-02-16T20:59:06.539Z,17.17
2019-02-16T21:02:01.661Z,17.00
2019-02-16T21:04:52.616Z,16.67
2019-02-16T21:07:41.917Z,17.53
2019-02-16T21:10:21.429Z,17.90
2019-02-16T21:13:16.577Z,17.77
2019-02-16T21:16:05.594Z,19.67
2019-02-16T21:18:50.104Z,17.43
2019-02-16T21:21:38.264Z,17.27
2019-02-16T21:24:15.637Z,17.23
2019-02-16T21:27:19.394Z,18.03
2019-02-16T21:30:00.605Z,17.63
2019-02-16T21:32:58.788Z,17.53
2019-02-16T21:35:48.117Z,17.40
2019-02-16T21:38:27.876Z,16.77
2019-02-16T21:41:13.785Z,14.77
2019-02-16T21:44:06.108Z,15.93
2019-02-16T21:46:54.686Z,16.23
2019-02-16T21:49:47.173Z,16.43
2019-02-16T21:52:45.501Z,16.03
2019-02-16T21:55:40.795Z,16.10
2019-02-16T21:58:24.873Z,15.20
2019-02-16T22:01:20.262Z,14.87
2019-02-16T22:03:56.566Z,14.13
2019-02-16T22:06:51.940Z,12.87
2019-02-16T22:09:45.240Z,12.70
2019-02-16T22:12:34.158Z,12.47
2019-02-16T22:15:05.169Z,12.60
2019-02-16T22:17:35.505Z,13.97
2019-02-16T22:20:06.236Z,13.63
2019-02-16T22:22:36.604Z,15.00
2019-02-16T22:25:07.137Z,14.70
2019-02-16T22:27:37.473Z,14.60
2019-02-16T22:30:08.745Z,16.43
2019-02-16T22:32:39.069Z,15.33
2019-02-16T22:35:09.446Z,14.93
2019-02-16T22:37:39.781Z,15.40
2019-02-16T22:40:10.637Z,15.10
2019-02-16T22:42:41.357Z,14.50
2019-02-16T22:45:11.941Z,15.70
2019-02-16T22:47:42.636Z,15.20
2019-02-16T22:50:13.965Z,13.87
2019-02-16T22:52:44.298Z,14.13
2019-02-16T22:55:14.625Z,13.93
2019-02-16T22:57:44.976Z,14.00
2019-02-16T23:00:27.727Z,14.93
2019-02-16T23:02:59.669Z,14.00
2019-02-16T23:05:30.065Z,12.97
2019-02-16T23:08:00.394Z,11.80
2019-02-16T23:10:30.745Z,13.17
2019-02-16T23:13:01.101Z,10.70
2019-02-16T23:15:31.433Z,11.00
2019-02-16T23:18:01.843Z,11.63
2019-02-16T23:20:32.165Z,10.50
2019-02-16T23:23:02.573Z,9.57
2019-02-16T23:25:32.897Z,8.53
2019-02-16T23:28:03.281Z,8.67
2019-02-16T23:30:33.693Z,8.97
2019-02-16T23:33:04.465Z,9.00
2019-02-16T23:35:34.794Z,9.67
2019-02-16T23:38:05.261Z,9.20
2019-02-16T23:40:35.601Z,9.70
2019-02-16T23:43:06.061Z,11.00
2019-02-16T23:45:36.471Z,9.73
2019-02-16T23:48:08.242Z,9.47
2019-02-16T23:50:38.573Z,10.90
2019-02-16T23:53:09.029Z,10.90
2019-02-16T23:55:39.372Z,10.30
2019-02-16T23:58:09.723Z,11.03
